Warm Springs, Georgia
Current Conditions -  °F | °C
As of 5:35 AM on Sunday 26 Oct 2014 (Local Time) from KLGC Reporting Station
Moderate Fog Moderate Fog  
Wind Chill: 51°   Ceiling: 500
Heat Index: 51°   Visibility: 0.5mi
Dew Point: 51°   Wind: 0mph
Humidity: 99%   Direction: NA
Pressure: 30"   Gusts: NA
Location:  32.89°N, 84.68°W
Report Text: KLGC 260935Z AUTO 00000KT 1/2SM FG VV005 11/11 A3000 RMK AO2 T01070106
Loading
Personal Weather Stations






























Interactive Weather Map
Tropical Storm Tracking
New forecast layout! Learn more

10-Day Weather Forecast

Advertisements
Track Severe Weather on mobile